sensor_id;sensor_type;location;lat;lon;timestamp;temperature;humidity
71436;SHT31;59251;51.326;12.370;2023-10-13T00:01:10;17.20;92.65
71436;SHT31;59251;51.326;12.370;2023-10-13T00:03:39;17.17;92.70
71436;SHT31;59251;51.326;12.370;2023-10-13T00:06:06;17.26;92.51
71436;SHT31;59251;51.326;12.370;2023-10-13T00:08:34;17.23;92.48
71436;SHT31;59251;51.326;12.370;2023-10-13T00:11:04;17.24;92.66
71436;SHT31;59251;51.326;12.370;2023-10-13T00:13:30;17.26;92.63
71436;SHT31;59251;51.326;12.370;2023-10-13T00:16:06;17.31;92.49
71436;SHT31;59251;51.326;12.370;2023-10-13T00:18:36;17.17;92.74
71436;SHT31;59251;51.326;12.370;2023-10-13T00:21:07;17.21;92.82
71436;SHT31;59251;51.326;12.370;2023-10-13T00:23:39;17.21;92.49
71436;SHT31;59251;51.326;12.370;2023-10-13T00:26:09;17.17;92.75
71436;SHT31;59251;51.326;12.370;2023-10-13T00:28:36;17.16;92.89
71436;SHT31;59251;51.326;12.370;2023-10-13T00:31:10;16.93;93.13
71436;SHT31;59251;51.326;12.370;2023-10-13T00:33:39;16.89;93.24
71436;SHT31;59251;51.326;12.370;2023-10-13T00:36:07;16.96;93.14
71436;SHT31;59251;51.326;12.370;2023-10-13T00:38:35;16.90;93.28
71436;SHT31;59251;51.326;12.370;2023-10-13T00:41:02;16.93;93.13
71436;SHT31;59251;51.326;12.370;2023-10-13T00:43:44;16.87;93.12
71436;SHT31;59251;51.326;12.370;2023-10-13T00:46:11;16.97;92.86
71436;SHT31;59251;51.326;12.370;2023-10-13T00:48:46;16.94;92.82
71436;SHT31;59251;51.326;12.370;2023-10-13T00:51:17;16.96;92.93
71436;SHT31;59251;51.326;12.370;2023-10-13T00:53:57;17.03;92.52
71436;SHT31;59251;51.326;12.370;2023-10-13T00:56:25;17.14;92.50
71436;SHT31;59251;51.326;12.370;2023-10-13T00:58:53;17.14;92.34
71436;SHT31;59251;51.326;12.370;2023-10-13T01:01:21;17.06;92.59
71436;SHT31;59251;51.326;12.370;2023-10-13T01:03:50;17.10;92.67
71436;SHT31;59251;51.326;12.370;2023-10-13T01:06:21;17.13;92.60
71436;SHT31;59251;51.326;12.370;2023-10-13T01:08:57;17.10;92.88
71436;SHT31;59251;51.326;12.370;2023-10-13T01:11:23;17.14;92.84
71436;SHT31;59251;51.326;12.370;2023-10-13T01:13:50;17.14;93.04
71436;SHT31;59251;51.326;12.370;2023-10-13T01:16:16;17.07;93.11
71436;SHT31;59251;51.326;12.370;2023-10-13T01:18:45;17.06;93.27
71436;SHT31;59251;51.326;12.370;2023-10-13T01:21:15;17.12;93.04
71436;SHT31;59251;51.326;12.370;2023-10-13T01:23:47;17.13;92.97
71436;SHT31;59251;51.326;12.370;2023-10-13T01:26:14;17.17;92.80
71436;SHT31;59251;51.326;12.370;2023-10-13T01:28:47;17.12;93.13
71436;SHT31;59251;51.326;12.370;2023-10-13T01:31:15;17.19;92.46
71436;SHT31;59251;51.326;12.370;2023-10-13T01:33:53;17.26;92.50
71436;SHT31;59251;51.326;12.370;2023-10-13T01:36:21;17.24;92.28
71436;SHT31;59251;51.326;12.370;2023-10-13T01:38:49;17.14;92.39
71436;SHT31;59251;51.326;12.370;2023-10-13T01:41:15;17.14;92.33
71436;SHT31;59251;51.326;12.370;2023-10-13T01:43:42;17.23;92.11
71436;SHT31;59251;51.326;12.370;2023-10-13T01:46:09;17.27;92.04
71436;SHT31;59251;51.326;12.370;2023-10-13T01:48:39;17.27;91.83
71436;SHT31;59251;51.326;12.370;2023-10-13T01:51:05;17.37;91.79
71436;SHT31;59251;51.326;12.370;2023-10-13T01:53:36;17.30;91.81
71436;SHT31;59251;51.326;12.370;2023-10-13T01:56:04;17.28;91.83
71436;SHT31;59251;51.326;12.370;2023-10-13T01:58:40;17.28;91.75
71436;SHT31;59251;51.326;12.370;2023-10-13T02:01:08;17.35;91.43
71436;SHT31;59251;51.326;12.370;2023-10-13T02:03:35;17.34;91.48
71436;SHT31;59251;51.326;12.370;2023-10-13T02:06:06;17.37;91.46
71436;SHT31;59251;51.326;12.370;2023-10-13T02:08:36;17.38;91.47
71436;SHT31;59251;51.326;12.370;2023-10-13T02:11:07;17.26;91.75
71436;SHT31;59251;51.326;12.370;2023-10-13T02:13:36;17.27;91.77
71436;SHT31;59251;51.326;12.370;2023-10-13T02:16:07;17.30;91.74
71436;SHT31;59251;51.326;12.370;2023-10-13T02:18:37;17.14;91.93
71436;SHT31;59251;51.326;12.370;2023-10-13T02:21:07;17.14;92.04
71436;SHT31;59251;51.326;12.370;2023-10-13T02:23:39;17.00;92.59
71436;SHT31;59251;51.326;12.370;2023-10-13T02:26:11;16.94;92.81
71436;SHT31;59251;51.326;12.370;2023-10-13T02:28:40;16.99;92.59
71436;SHT31;59251;51.326;12.370;2023-10-13T02:31:06;16.73;93.44
71436;SHT31;59251;51.326;12.370;2023-10-13T02:33:33;16.86;93.16
71436;SHT31;59251;51.326;12.370;2023-10-13T02:36:01;16.80;93.34
71436;SHT31;59251;51.326;12.370;2023-10-13T02:38:31;16.77;93.67
71436;SHT31;59251;51.326;12.370;2023-10-13T02:41:00;16.69;93.69
71436;SHT31;59251;51.326;12.370;2023-10-13T02:43:34;16.83;93.37
71436;SHT31;59251;51.326;12.370;2023-10-13T02:46:02;16.77;93.62
71436;SHT31;59251;51.326;12.370;2023-10-13T02:48:29;16.72;93.88
71436;SHT31;59251;51.326;12.370;2023-10-13T02:51:05;16.76;93.82
71436;SHT31;59251;51.326;12.370;2023-10-13T02:53:41;16.82;93.63
71436;SHT31;59251;51.326;12.370;2023-10-13T02:56:07;16.83;93.42
71436;SHT31;59251;51.326;12.370;2023-10-13T02:58:35;16.80;93.53
71436;SHT31;59251;51.326;12.370;2023-10-13T03:01:06;16.77;93.67
71436;SHT31;59251;51.326;12.370;2023-10-13T03:03:43;16.75;93.63
71436;SHT31;59251;51.326;12.370;2023-10-13T03:06:14;16.79;93.49
71436;SHT31;59251;51.326;12.370;2023-10-13T03:08:41;16.79;93.73
71436;SHT31;59251;51.326;12.370;2023-10-13T03:11:09;16.77;93.58
71436;SHT31;59251;51.326;12.370;2023-10-13T03:13:38;16.66;93.77
71436;SHT31;59251;51.326;12.370;2023-10-13T03:16:13;16.75;93.56
71436;SHT31;59251;51.326;12.370;2023-10-13T03:18:42;16.76;93.56
71436;SHT31;59251;51.326;12.370;2023-10-13T03:21:17;16.69;93.77
71436;SHT31;59251;51.326;12.370;2023-10-13T03:23:54;16.71;93.67
71436;SHT31;59251;51.326;12.370;2023-10-13T03:26:21;16.62;93.71
71436;SHT31;59251;51.326;12.370;2023-10-13T03:28:49;16.77;93.41
71436;SHT31;59251;51.326;12.370;2023-10-13T03:31:20;16.66;93.49
71436;SHT31;59251;51.326;12.370;2023-10-13T03:33:53;16.76;93.50
71436;SHT31;59251;51.326;12.370;2023-10-13T03:36:24;16.93;92.90
71436;SHT31;59251;51.326;12.370;2023-10-13T03:39:21;16.97;92.59
71436;SHT31;59251;51.326;12.370;2023-10-13T03:41:54;17.02;92.57
71436;SHT31;59251;51.326;12.370;2023-10-13T03:44:22;17.10;92.49
71436;SHT31;59251;51.326;12.370;2023-10-13T03:46:49;17.06;92.54
71436;SHT31;59251;51.326;12.370;2023-10-13T03:49:19;16.96;92.50
71436;SHT31;59251;51.326;12.370;2023-10-13T03:51:47;17.07;92.30
71436;SHT31;59251;51.326;12.370;2023-10-13T03:54:14;17.13;92.10
71436;SHT31;59251;51.326;12.370;2023-10-13T03:56:42;17.07;92.23
71436;SHT31;59251;51.326;12.370;2023-10-13T03:59:10;17.19;92.15
71436;SHT31;59251;51.326;12.370;2023-10-13T04:01:45;17.26;91.87
71436;SHT31;59251;51.326;12.370;2023-10-13T04:04:13;17.26;91.95
71436;SHT31;59251;51.326;12.370;2023-10-13T04:06:41;17.30;91.74
71436;SHT31;59251;51.326;12.370;2023-10-13T04:09:18;17.28;91.88
71436;SHT31;59251;51.326;12.370;2023-10-13T04:12:20;17.28;91.65
71436;SHT31;59251;51.326;12.370;2023-10-13T04:15:04;17.40;91.67
71436;SHT31;59251;51.326;12.370;2023-10-13T04:17:50;17.34;91.58
71436;SHT31;59251;51.326;12.370;2023-10-13T04:20:16;17.35;91.66
71436;SHT31;59251;51.326;12.370;2023-10-13T04:23:03;17.34;91.74
71436;SHT31;59251;51.326;12.370;2023-10-13T04:25:45;17.37;91.66
71436;SHT31;59251;51.326;12.370;2023-10-13T04:28:28;17.27;91.64
71436;SHT31;59251;51.326;12.370;2023-10-13T04:31:16;17.34;91.63
71436;SHT31;59251;51.326;12.370;2023-10-13T04:34:06;17.20;91.94
71436;SHT31;59251;51.326;12.370;2023-10-13T04:36:41;17.37;91.69
71436;SHT31;59251;51.326;12.370;2023-10-13T04:39:11;17.32;91.81
71436;SHT31;59251;51.326;12.370;2023-10-13T04:41:42;17.24;92.01
71436;SHT31;59251;51.326;12.370;2023-10-13T04:44:09;17.19;92.19
71436;SHT31;59251;51.326;12.370;2023-10-13T04:47:02;17.14;92.31
71436;SHT31;59251;51.326;12.370;2023-10-13T04:49:43;17.13;92.49
71436;SHT31;59251;51.326;12.370;2023-10-13T04:52:17;17.21;92.09
71436;SHT31;59251;51.326;12.370;2023-10-13T04:55:05;17.19;92.14
71436;SHT31;59251;51.326;12.370;2023-10-13T04:57:52;17.30;91.92
71436;SHT31;59251;51.326;12.370;2023-10-13T05:00:26;17.34;91.85
71436;SHT31;59251;51.326;12.370;2023-10-13T05:03:16;17.26;92.13
71436;SHT31;59251;51.326;12.370;2023-10-13T05:06:06;17.23;92.08
71436;SHT31;59251;51.326;12.370;2023-10-13T05:08:59;17.20;92.26
71436;SHT31;59251;51.326;12.370;2023-10-13T05:11:43;17.19;92.37
71436;SHT31;59251;51.326;12.370;2023-10-13T05:14:27;17.23;92.17
71436;SHT31;59251;51.326;12.370;2023-10-13T05:17:20;17.35;91.79
71436;SHT31;59251;51.326;12.370;2023-10-13T05:20:07;17.38;91.83
71436;SHT31;59251;51.326;12.370;2023-10-13T05:22:51;17.41;91.55
71436;SHT31;59251;51.326;12.370;2023-10-13T05:25:35;17.28;92.07
71436;SHT31;59251;51.326;12.370;2023-10-13T05:28:19;17.34;91.75
71436;SHT31;59251;51.326;12.370;2023-10-13T05:31:04;17.24;91.97
71436;SHT31;59251;51.326;12.370;2023-10-13T05:33:53;17.40;91.60
71436;SHT31;59251;51.326;12.370;2023-10-13T05:36:39;17.34;91.86
71436;SHT31;59251;51.326;12.370;2023-10-13T05:39:23;17.44;91.64
71436;SHT31;59251;51.326;12.370;2023-10-13T05:42:08;17.42;91.58
71436;SHT31;59251;51.326;12.370;2023-10-13T05:44:52;17.37;91.84
71436;SHT31;59251;51.326;12.370;2023-10-13T05:47:33;17.62;91.14
71436;SHT31;59251;51.326;12.370;2023-10-13T05:50:16;17.72;90.73
71436;SHT31;59251;51.326;12.370;2023-10-13T05:53:16;17.72;90.79
71436;SHT31;59251;51.326;12.370;2023-10-13T05:56:01;17.74;90.75
71436;SHT31;59251;51.326;12.370;2023-10-13T05:58:45;17.82;90.52
71436;SHT31;59251;51.326;12.370;2023-10-13T06:01:30;17.74;90.86
71436;SHT31;59251;51.326;12.370;2023-10-13T06:04:14;17.71;90.88
71436;SHT31;59251;51.326;12.370;2023-10-13T06:06:58;17.77;90.81
71436;SHT31;59251;51.326;12.370;2023-10-13T06:09:44;17.71;91.10
71436;SHT31;59251;51.326;12.370;2023-10-13T06:12:28;17.79;90.88
71436;SHT31;59251;51.326;12.370;2023-10-13T06:15:13;17.85;90.56
71436;SHT31;59251;51.326;12.370;2023-10-13T06:17:57;17.85;90.69
71436;SHT31;59251;51.326;12.370;2023-10-13T06:20:42;18.03;90.38
71436;SHT31;59251;51.326;12.370;2023-10-13T06:23:26;18.06;90.39
71436;SHT31;59251;51.326;12.370;2023-10-13T06:26:11;17.99;90.34
71436;SHT31;59251;51.326;12.370;2023-10-13T06:28:56;18.14;90.15
71436;SHT31;59251;51.326;12.370;2023-10-13T06:31:22;18.09;90.28
71436;SHT31;59251;51.326;12.370;2023-10-13T06:33:51;18.12;90.26
71436;SHT31;59251;51.326;12.370;2023-10-13T06:36:20;18.22;90.04
71436;SHT31;59251;51.326;12.370;2023-10-13T06:38:47;18.06;90.11
71436;SHT31;59251;51.326;12.370;2023-10-13T06:41:21;18.09;90.45
71436;SHT31;59251;51.326;12.370;2023-10-13T06:43:56;18.12;90.29
71436;SHT31;59251;51.326;12.370;2023-10-13T06:46:28;18.19;90.28
71436;SHT31;59251;51.326;12.370;2023-10-13T06:48:59;18.25;90.07
71436;SHT31;59251;51.326;12.370;2023-10-13T06:51:28;18.25;90.28
71436;SHT31;59251;51.326;12.370;2023-10-13T06:54:04;18.30;90.00
71436;SHT31;59251;51.326;12.370;2023-10-13T06:56:36;18.38;89.90
71436;SHT31;59251;51.326;12.370;2023-10-13T06:59:05;18.51;89.90
71436;SHT31;59251;51.326;12.370;2023-10-13T07:01:32;18.51;89.76
71436;SHT31;59251;51.326;12.370;2023-10-13T07:04:04;18.53;89.55
71436;SHT31;59251;51.326;12.370;2023-10-13T07:06:39;18.78;89.17
71436;SHT31;59251;51.326;12.370;2023-10-13T07:09:08;18.68;89.34
71436;SHT31;59251;51.326;12.370;2023-10-13T07:11:42;18.72;89.39
71436;SHT31;59251;51.326;12.370;2023-10-13T07:14:09;18.81;88.93
71436;SHT31;59251;51.326;12.370;2023-10-13T07:16:42;18.89;88.76
71436;SHT31;59251;51.326;12.370;2023-10-13T07:19:12;18.98;88.74
71436;SHT31;59251;51.326;12.370;2023-10-13T07:21:43;18.99;88.56
71436;SHT31;59251;51.326;12.370;2023-10-13T07:24:11;19.01;88.45
71436;SHT31;59251;51.326;12.370;2023-10-13T07:26:38;19.12;88.16
71436;SHT31;59251;51.326;12.370;2023-10-13T07:29:09;19.11;88.32
71436;SHT31;59251;51.326;12.370;2023-10-13T07:31:36;18.99;88.41
71436;SHT31;59251;51.326;12.370;2023-10-13T07:34:06;19.01;88.58
71436;SHT31;59251;51.326;12.370;2023-10-13T07:36:39;19.16;88.23
71436;SHT31;59251;51.326;12.370;2023-10-13T07:39:09;19.13;88.07
71436;SHT31;59251;51.326;12.370;2023-10-13T07:41:51;19.20;88.05
71436;SHT31;59251;51.326;12.370;2023-10-13T07:44:21;19.30;87.97
71436;SHT31;59251;51.326;12.370;2023-10-13T07:46:52;19.34;87.70
71436;SHT31;59251;51.326;12.370;2023-10-13T07:49:27;19.37;87.35
71436;SHT31;59251;51.326;12.370;2023-10-13T07:51:57;19.39;87.50
71436;SHT31;59251;51.326;12.370;2023-10-13T07:54:26;19.56;87.27
71436;SHT31;59251;51.326;12.370;2023-10-13T07:56:53;19.64;87.08
71436;SHT31;59251;51.326;12.370;2023-10-13T07:59:22;19.74;86.89
71436;SHT31;59251;51.326;12.370;2023-10-13T08:01:49;19.56;87.38
71436;SHT31;59251;51.326;12.370;2023-10-13T08:04:37;19.71;86.92
71436;SHT31;59251;51.326;12.370;2023-10-13T08:07:04;19.71;86.80
71436;SHT31;59251;51.326;12.370;2023-10-13T08:09:38;19.70;86.85
71436;SHT31;59251;51.326;12.370;2023-10-13T08:12:07;19.90;86.66
71436;SHT31;59251;51.326;12.370;2023-10-13T08:14:38;19.88;86.59
71436;SHT31;59251;51.326;12.370;2023-10-13T08:17:07;19.77;86.72
71436;SHT31;59251;51.326;12.370;2023-10-13T08:19:35;19.82;86.89
71436;SHT31;59251;51.326;12.370;2023-10-13T08:22:10;19.88;86.53
71436;SHT31;59251;51.326;12.370;2023-10-13T08:25:01;19.92;86.37
71436;SHT31;59251;51.326;12.370;2023-10-13T08:27:50;19.92;86.48
71436;SHT31;59251;51.326;12.370;2023-10-13T08:30:44;19.95;86.65
71436;SHT31;59251;51.326;12.370;2023-10-13T08:33:19;19.92;86.56
71436;SHT31;59251;51.326;12.370;2023-10-13T08:35:49;20.09;86.25
71436;SHT31;59251;51.326;12.370;2023-10-13T08:38:42;19.95;86.59
71436;SHT31;59251;51.326;12.370;2023-10-13T08:41:17;19.90;86.62
71436;SHT31;59251;51.326;12.370;2023-10-13T08:44:03;19.94;86.79
71436;SHT31;59251;51.326;12.370;2023-10-13T08:46:33;20.01;86.56
71436;SHT31;59251;51.326;12.370;2023-10-13T08:49:25;20.07;86.45
71436;SHT31;59251;51.326;12.370;2023-10-13T08:51:55;20.08;86.40
71436;SHT31;59251;51.326;12.370;2023-10-13T08:54:32;20.15;85.91
71436;SHT31;59251;51.326;12.370;2023-10-13T08:57:11;20.26;85.88
71436;SHT31;59251;51.326;12.370;2023-10-13T08:59:55;20.38;85.74
71436;SHT31;59251;51.326;12.370;2023-10-13T09:02:43;20.42;85.35
71436;SHT31;59251;51.326;12.370;2023-10-13T09:05:25;20.40;85.80
71436;SHT31;59251;51.326;12.370;2023-10-13T09:08:08;20.46;85.50
71436;SHT31;59251;51.326;12.370;2023-10-13T09:10:35;20.69;85.02
71436;SHT31;59251;51.326;12.370;2023-10-13T09:13:10;20.60;85.37
71436;SHT31;59251;51.326;12.370;2023-10-13T09:15:45;20.66;85.11
71436;SHT31;59251;51.326;12.370;2023-10-13T09:18:29;20.46;85.63
71436;SHT31;59251;51.326;12.370;2023-10-13T09:21:15;20.45;85.67
71436;SHT31;59251;51.326;12.370;2023-10-13T09:23:59;20.60;85.67
71436;SHT31;59251;51.326;12.370;2023-10-13T09:26:44;20.46;85.51
71436;SHT31;59251;51.326;12.370;2023-10-13T09:29:19;20.72;85.08
71436;SHT31;59251;51.326;12.370;2023-10-13T09:31:46;20.72;85.19
71436;SHT31;59251;51.326;12.370;2023-10-13T09:34:21;20.76;84.99
71436;SHT31;59251;51.326;12.370;2023-10-13T09:36:49;20.81;84.88
71436;SHT31;59251;51.326;12.370;2023-10-13T09:39:24;20.90;84.87
71436;SHT31;59251;51.326;12.370;2023-10-13T09:41:55;20.91;84.64
71436;SHT31;59251;51.326;12.370;2023-10-13T09:44:25;20.91;84.69
71436;SHT31;59251;51.326;12.370;2023-10-13T09:47:00;21.04;84.45
71436;SHT31;59251;51.326;12.370;2023-10-13T09:49:39;21.11;84.23
71436;SHT31;59251;51.326;12.370;2023-10-13T09:52:16;20.91;84.41
71436;SHT31;59251;51.326;12.370;2023-10-13T09:55:00;21.00;84.36
71436;SHT31;59251;51.326;12.370;2023-10-13T09:57:34;20.94;84.32
71436;SHT31;59251;51.326;12.370;2023-10-13T10:00:08;21.10;84.06
71436;SHT31;59251;51.326;12.370;2023-10-13T10:02:55;21.10;83.92
71436;SHT31;59251;51.326;12.370;2023-10-13T10:05:31;21.07;83.92
71436;SHT31;59251;51.326;12.370;2023-10-13T10:08:01;21.18;83.76
71436;SHT31;59251;51.326;12.370;2023-10-13T10:10:35;21.21;83.82
71436;SHT31;59251;51.326;12.370;2023-10-13T10:13:18;21.43;83.30
71436;SHT31;59251;51.326;12.370;2023-10-13T10:15:47;21.48;83.28
71436;SHT31;59251;51.326;12.370;2023-10-13T10:18:18;21.62;82.67
71436;SHT31;59251;51.326;12.370;2023-10-13T10:20:46;21.55;82.73
71436;SHT31;59251;51.326;12.370;2023-10-13T10:23:23;21.63;82.64
71436;SHT31;59251;51.326;12.370;2023-10-13T10:25:51;21.67;82.44
71436;SHT31;59251;51.326;12.370;2023-10-13T10:28:17;21.78;82.17
71436;SHT31;59251;51.326;12.370;2023-10-13T10:30:45;21.72;81.90
71436;SHT31;59251;51.326;12.370;2023-10-13T10:33:12;21.70;82.35
71436;SHT31;59251;51.326;12.370;2023-10-13T10:35:41;21.90;81.94
71436;SHT31;59251;51.326;12.370;2023-10-13T10:38:12;21.93;82.00
71436;SHT31;59251;51.326;12.370;2023-10-13T10:40:52;22.01;81.82
71436;SHT31;59251;51.326;12.370;2023-10-13T10:43:24;21.82;82.14
71436;SHT31;59251;51.326;12.370;2023-10-13T10:45:52;21.89;82.15
71436;SHT31;59251;51.326;12.370;2023-10-13T10:48:25;21.75;82.42
71436;SHT31;59251;51.326;12.370;2023-10-13T10:50:57;22.01;81.72
71436;SHT31;59251;51.326;12.370;2023-10-13T10:53:34;22.06;81.50
71436;SHT31;59251;51.326;12.370;2023-10-13T10:56:09;22.24;81.11
71436;SHT31;59251;51.326;12.370;2023-10-13T10:58:46;22.17;81.03
71436;SHT31;59251;51.326;12.370;2023-10-13T11:01:13;22.31;80.54
71436;SHT31;59251;51.326;12.370;2023-10-13T11:03:55;22.55;80.06
71436;SHT31;59251;51.326;12.370;2023-10-13T11:06:34;22.52;80.07
71436;SHT31;59251;51.326;12.370;2023-10-13T11:09:06;22.43;80.15
71436;SHT31;59251;51.326;12.370;2023-10-13T11:11:45;22.71;79.74
71436;SHT31;59251;51.326;12.370;2023-10-13T11:14:20;22.76;79.49
71436;SHT31;59251;51.326;12.370;2023-10-13T11:16:49;22.57;79.53
71436;SHT31;59251;51.326;12.370;2023-10-13T11:19:19;22.72;79.53
71436;SHT31;59251;51.326;12.370;2023-10-13T11:21:53;22.86;78.91
71436;SHT31;59251;51.326;12.370;2023-10-13T11:24:22;23.05;78.35
71436;SHT31;59251;51.326;12.370;2023-10-13T11:26:49;23.07;78.07
71436;SHT31;59251;51.326;12.370;2023-10-13T11:29:18;23.00;78.56
71436;SHT31;59251;51.326;12.370;2023-10-13T11:31:48;23.14;77.71
71436;SHT31;59251;51.326;12.370;2023-10-13T11:34:24;23.27;77.63
71436;SHT31;59251;51.326;12.370;2023-10-13T11:36:55;23.36;77.31
71436;SHT31;59251;51.326;12.370;2023-10-13T11:39:25;23.28;76.97
71436;SHT31;59251;51.326;12.370;2023-10-13T11:41:58;23.60;76.49
71436;SHT31;59251;51.326;12.370;2023-10-13T11:44:25;23.98;75.82
71436;SHT31;59251;51.326;12.370;2023-10-13T11:46:57;23.89;75.78
71436;SHT31;59251;51.326;12.370;2023-10-13T11:49:40;23.95;75.42
71436;SHT31;59251;51.326;12.370;2023-10-13T11:52:06;24.12;75.00
71436;SHT31;59251;51.326;12.370;2023-10-13T11:54:48;24.01;75.08
71436;SHT31;59251;51.326;12.370;2023-10-13T11:57:15;23.79;75.11
71436;SHT31;59251;51.326;12.370;2023-10-13T11:59:45;23.68;75.33
71436;SHT31;59251;51.326;12.370;2023-10-13T12:02:20;23.68;75.03
71436;SHT31;59251;51.326;12.370;2023-10-13T12:05:05;23.68;74.88
71436;SHT31;59251;51.326;12.370;2023-10-13T12:07:38;23.99;74.43
71436;SHT31;59251;51.326;12.370;2023-10-13T12:10:14;24.12;73.78
71436;SHT31;59251;51.326;12.370;2023-10-13T12:12:46;24.63;72.43
71436;SHT31;59251;51.326;12.370;2023-10-13T12:15:19;25.05;70.98
71436;SHT31;59251;51.326;12.370;2023-10-13T12:17:59;25.36;69.57
71436;SHT31;59251;51.326;12.370;2023-10-13T12:20:28;25.81;68.08
71436;SHT31;59251;51.326;12.370;2023-10-13T12:23:01;26.27;67.11
71436;SHT31;59251;51.326;12.370;2023-10-13T12:25:42;27.13;65.15
71436;SHT31;59251;51.326;12.370;2023-10-13T12:28:23;26.38;66.31
71436;SHT31;59251;51.326;12.370;2023-10-13T12:30:53;27.07;64.96
71436;SHT31;59251;51.326;12.370;2023-10-13T12:33:23;27.62;62.88
71436;SHT31;59251;51.326;12.370;2023-10-13T12:35:56;28.54;61.08
71436;SHT31;59251;51.326;12.370;2023-10-13T12:38:35;28.17;61.58
71436;SHT31;59251;51.326;12.370;2023-10-13T12:41:39;28.32;61.27
71436;SHT31;59251;51.326;12.370;2023-10-13T12:44:22;27.86;61.64
71436;SHT31;59251;51.326;12.370;2023-10-13T12:47:07;26.48;63.89
71436;SHT31;59251;51.326;12.370;2023-10-13T12:49:51;26.21;64.55
71436;SHT31;59251;51.326;12.370;2023-10-13T12:52:51;25.84;65.71
71436;SHT31;59251;51.326;12.370;2023-10-13T12:55:18;25.91;65.81
71436;SHT31;59251;51.326;12.370;2023-10-13T12:57:51;26.55;64.54
71436;SHT31;59251;51.326;12.370;2023-10-13T13:00:18;27.07;63.43
71436;SHT31;59251;51.326;12.370;2023-10-13T13:02:49;26.78;63.81
71436;SHT31;59251;51.326;12.370;2023-10-13T13:05:18;26.69;63.94
71436;SHT31;59251;51.326;12.370;2023-10-13T13:07:48;26.38;64.59
71436;SHT31;59251;51.326;12.370;2023-10-13T13:10:18;26.59;64.22
71436;SHT31;59251;51.326;12.370;2023-10-13T13:12:46;26.32;64.40
71436;SHT31;59251;51.326;12.370;2023-10-13T13:15:14;26.32;64.90
71436;SHT31;59251;51.326;12.370;2023-10-13T13:17:41;25.91;64.86
71436;SHT31;59251;51.326;12.370;2023-10-13T13:20:09;26.13;65.35
71436;SHT31;59251;51.326;12.370;2023-10-13T13:22:52;26.01;65.51
71436;SHT31;59251;51.326;12.370;2023-10-13T13:25:19;26.25;65.06
71436;SHT31;59251;51.326;12.370;2023-10-13T13:27:51;26.04;65.38
71436;SHT31;59251;51.326;12.370;2023-10-13T13:30:19;25.91;65.58
71436;SHT31;59251;51.326;12.370;2023-10-13T13:32:47;25.67;65.82
71436;SHT31;59251;51.326;12.370;2023-10-13T13:35:13;25.76;65.50
71436;SHT31;59251;51.326;12.370;2023-10-13T13:37:44;25.81;65.08
71436;SHT31;59251;51.326;12.370;2023-10-13T13:40:11;25.72;65.74
71436;SHT31;59251;51.326;12.370;2023-10-13T13:42:42;25.67;65.58
71436;SHT31;59251;51.326;12.370;2023-10-13T13:45:13;25.80;65.43
71436;SHT31;59251;51.326;12.370;2023-10-13T13:47:49;27.20;62.93
71436;SHT31;59251;51.326;12.370;2023-10-13T13:50:20;28.37;60.56
71436;SHT31;59251;51.326;12.370;2023-10-13T13:52:51;27.95;59.97
71436;SHT31;59251;51.326;12.370;2023-10-13T13:55:19;28.09;58.77
71436;SHT31;59251;51.326;12.370;2023-10-13T13:57:46;27.07;60.57
71436;SHT31;59251;51.326;12.370;2023-10-13T14:00:15;26.83;60.77
71436;SHT31;59251;51.326;12.370;2023-10-13T14:02:48;26.68;61.07
71436;SHT31;59251;51.326;12.370;2023-10-13T14:05:15;26.53;61.33
71436;SHT31;59251;51.326;12.370;2023-10-13T14:07:42;26.59;61.05
71436;SHT31;59251;51.326;12.370;2023-10-13T14:10:15;26.24;61.09
71436;SHT31;59251;51.326;12.370;2023-10-13T14:12:58;26.10;60.85
71436;SHT31;59251;51.326;12.370;2023-10-13T14:15:33;26.05;61.20
71436;SHT31;59251;51.326;12.370;2023-10-13T14:18:07;25.66;61.62
71436;SHT31;59251;51.326;12.370;2023-10-13T14:20:40;25.52;61.63
71436;SHT31;59251;51.326;12.370;2023-10-13T14:23:08;25.63;61.52
71436;SHT31;59251;51.326;12.370;2023-10-13T14:25:38;25.50;61.47
71436;SHT31;59251;51.326;12.370;2023-10-13T14:28:09;25.43;61.52
71436;SHT31;59251;51.326;12.370;2023-10-13T14:30:37;25.28;61.48
71436;SHT31;59251;51.326;12.370;2023-10-13T14:33:04;25.29;61.54
71436;SHT31;59251;51.326;12.370;2023-10-13T14:35:37;25.21;62.03
71436;SHT31;59251;51.326;12.370;2023-10-13T14:38:04;25.19;61.82
71436;SHT31;59251;51.326;12.370;2023-10-13T14:40:32;25.14;61.44
71436;SHT31;59251;51.326;12.370;2023-10-13T14:42:59;25.14;61.77
71436;SHT31;59251;51.326;12.370;2023-10-13T14:45:25;25.18;61.65
71436;SHT31;59251;51.326;12.370;2023-10-13T14:47:52;25.16;61.47
71436;SHT31;59251;51.326;12.370;2023-10-13T14:50:19;25.24;61.63
71436;SHT31;59251;51.326;12.370;2023-10-13T14:52:48;25.21;62.33
71436;SHT31;59251;51.326;12.370;2023-10-13T14:55:15;25.26;62.09
71436;SHT31;59251;51.326;12.370;2023-10-13T14:57:46;25.08;62.48
71436;SHT31;59251;51.326;12.370;2023-10-13T15:00:16;24.92;62.60
71436;SHT31;59251;51.326;12.370;2023-10-13T15:02:51;24.83;62.39
71436;SHT31;59251;51.326;12.370;2023-10-13T15:05:18;24.94;62.22
71436;SHT31;59251;51.326;12.370;2023-10-13T15:07:45;24.95;62.33
71436;SHT31;59251;51.326;12.370;2023-10-13T15:10:14;24.92;62.48
71436;SHT31;59251;51.326;12.370;2023-10-13T15:12:42;24.92;62.16
71436;SHT31;59251;51.326;12.370;2023-10-13T15:15:10;24.91;62.51
71436;SHT31;59251;51.326;12.370;2023-10-13T15:17:41;24.84;62.55
71436;SHT31;59251;51.326;12.370;2023-10-13T15:20:08;24.85;62.39
71436;SHT31;59251;51.326;12.370;2023-10-13T15:22:41;24.71;62.21
71436;SHT31;59251;51.326;12.370;2023-10-13T15:25:08;24.77;62.16
71436;SHT31;59251;51.326;12.370;2023-10-13T15:27:44;24.64;62.32
71436;SHT31;59251;51.326;12.370;2023-10-13T15:30:16;24.43;62.71
71436;SHT31;59251;51.326;12.370;2023-10-13T15:32:49;24.49;62.21
71436;SHT31;59251;51.326;12.370;2023-10-13T15:35:17;24.49;62.28
71436;SHT31;59251;51.326;12.370;2023-10-13T15:37:44;24.36;62.32
71436;SHT31;59251;51.326;12.370;2023-10-13T15:40:13;24.44;62.44
71436;SHT31;59251;51.326;12.370;2023-10-13T15:42:41;24.39;62.32
71436;SHT31;59251;51.326;12.370;2023-10-13T15:45:09;24.39;62.33
71436;SHT31;59251;51.326;12.370;2023-10-13T15:47:43;24.36;62.40
71436;SHT31;59251;51.326;12.370;2023-10-13T15:50:13;24.33;62.11
71436;SHT31;59251;51.326;12.370;2023-10-13T15:52:41;24.26;62.18
71436;SHT31;59251;51.326;12.370;2023-10-13T15:55:12;24.29;62.23